sensor_id;sensor_type;location;lat;lon;timestamp;pressure;altitude;pressure_sealevel;temperature;humidity
71770;BME280;59605;52.122;5.420;2022-09-25T00:01:59;101707.50;;;20.64;56.45
71770;BME280;59605;52.122;5.420;2022-09-25T00:04:25;101707.50;;;20.64;56.13
71770;BME280;59605;52.122;5.420;2022-09-25T00:06:52;101715.31;;;20.64;55.96
71770;BME280;59605;52.122;5.420;2022-09-25T00:09:18;101718.03;;;20.62;56.43
71770;BME280;59605;52.122;5.420;2022-09-25T00:11:46;101707.59;;;20.62;56.21
71770;BME280;59605;52.122;5.420;2022-09-25T00:14:13;101718.03;;;20.62;56.27
71770;BME280;59605;52.122;5.420;2022-09-25T00:16:39;101720.75;;;20.61;56.24
71770;BME280;59605;52.122;5.420;2022-09-25T00:19:05;101719.78;;;20.62;55.95
71770;BME280;59605;52.122;5.420;2022-09-25T00:21:50;101722.41;;;20.62;55.88
71770;BME280;59605;52.122;5.420;2022-09-25T00:24:18;101727.72;;;20.60;55.92
71770;BME280;59605;52.122;5.420;2022-09-25T00:26:44;101720.75;;;20.61;56.14
71770;BME280;59605;52.122;5.420;2022-09-25T00:29:15;101726.91;;;20.60;56.25
71770;BME280;59605;52.122;5.420;2022-09-25T00:31:43;101722.50;;;20.60;55.97
71770;BME280;59605;52.122;5.420;2022-09-25T00:34:10;101733.06;;;20.58;55.89
71770;BME280;59605;52.122;5.420;2022-09-25T00:36:37;101724.41;;;20.58;55.71
71770;BME280;59605;52.122;5.420;2022-09-25T00:39:03;101736.53;;;20.59;56.02
71770;BME280;59605;52.122;5.420;2022-09-25T00:41:30;101726.19;;;20.57;55.98
71770;BME280;59605;52.122;5.420;2022-09-25T00:43:58;101730.56;;;20.57;55.91
71770;BME280;59605;52.122;5.420;2022-09-25T00:48:57;101727.94;;;20.57;55.83
71770;BME280;59605;52.122;5.420;2022-09-25T00:51:28;101730.56;;;20.57;55.97
71770;BME280;59605;52.122;5.420;2022-09-25T00:53:57;101725.44;;;20.55;55.68
71770;BME280;59605;52.122;5.420;2022-09-25T00:56:25;101724.59;;;20.55;55.69
71770;BME280;59605;52.122;5.420;2022-09-25T00:58:53;101727.22;;;20.55;55.70
71770;BME280;59605;52.122;5.420;2022-09-25T01:01:20;101730.66;;;20.55;55.80
71770;BME280;59605;52.122;5.420;2022-09-25T01:03:47;101718.53;;;20.54;55.79
71770;BME280;59605;52.122;5.420;2022-09-25T01:06:15;101718.53;;;20.54;55.94
71770;BME280;59605;52.122;5.420;2022-09-25T01:08:43;101725.53;;;20.54;55.90
71770;BME280;59605;52.122;5.420;2022-09-25T01:11:11;101729.81;;;20.55;55.71
71770;BME280;59605;52.122;5.420;2022-09-25T01:13:37;101723.84;;;20.53;55.48
71770;BME280;59605;52.122;5.420;2022-09-25T01:16:25;101727.31;;;20.53;55.82
71770;BME280;59605;52.122;5.420;2022-09-25T01:24:23;101721.22;;;20.53;55.44
71770;BME280;59605;52.122;5.420;2022-09-25T01:27:37;101722.19;;;20.52;55.57
71770;BME280;59605;52.122;5.420;2022-09-25T01:30:12;101724.81;;;20.52;55.46
71770;BME280;59605;52.122;5.420;2022-09-25T01:32:57;101719.59;;;20.52;55.32
71770;BME280;59605;52.122;5.420;2022-09-25T01:38:52;101727.53;;;20.50;55.74
71770;BME280;59605;52.122;5.420;2022-09-25T01:41:31;101723.13;;;20.51;55.39
71770;BME280;59605;52.122;5.420;2022-09-25T01:44:11;101727.53;;;20.50;55.18
71770;BME280;59605;52.122;5.420;2022-09-25T01:46:44;101727.53;;;20.50;55.52
71770;BME280;59605;52.122;5.420;2022-09-25T01:49:31;101720.59;;;20.49;55.20
71770;BME280;59605;52.122;5.420;2022-09-25T01:52:02;101718.00;;;20.49;55.25
71770;BME280;59605;52.122;5.420;2022-09-25T01:54:37;101719.78;;;20.49;55.03
71770;BME280;59605;52.122;5.420;2022-09-25T01:57:09;101719.78;;;20.49;54.94
71770;BME280;59605;52.122;5.420;2022-09-25T02:00:00;101716.41;;;20.47;55.05
71770;BME280;59605;52.122;5.420;2022-09-25T02:02:44;101714.66;;;20.47;55.32
71770;BME280;59605;52.122;5.420;2022-09-25T02:07:51;101717.28;;;20.47;55.08
71770;BME280;59605;52.122;5.420;2022-09-25T02:10:22;101716.41;;;20.47;55.27
71770;BME280;59605;52.122;5.420;2022-09-25T02:12:53;101713.09;;;20.45;55.17
71770;BME280;59605;52.122;5.420;2022-09-25T02:15:27;101721.75;;;20.45;54.81
71770;BME280;59605;52.122;5.420;2022-09-25T02:18:02;101711.28;;;20.45;54.88
71770;BME280;59605;52.122;5.420;2022-09-25T02:20:58;101713.09;;;20.45;54.98
71770;BME280;59605;52.122;5.420;2022-09-25T02:26:27;101723.53;;;20.45;54.70
71770;BME280;59605;52.122;5.420;2022-09-25T02:28:54;101723.63;;;20.43;55.13
71770;BME280;59605;52.122;5.420;2022-09-25T02:31:25;101721.00;;;20.43;54.89
71770;BME280;59605;52.122;5.420;2022-09-25T02:33:55;101723.63;;;20.43;54.93
71770;BME280;59605;52.122;5.420;2022-09-25T02:36:21;101726.25;;;20.43;54.80
71770;BME280;59605;52.122;5.420;2022-09-25T02:38:52;101721.94;;;20.42;54.62
71770;BME280;59605;52.122;5.420;2022-09-25T02:41:28;101726.34;;;20.42;54.93
71770;BME280;59605;52.122;5.420;2022-09-25T02:44:10;101723.72;;;20.42;54.96
71770;BME280;59605;52.122;5.420;2022-09-25T02:49:54;101716.00;;;20.40;54.73
71770;BME280;59605;52.122;5.420;2022-09-25T02:52:47;101715.13;;;20.39;54.48
71770;BME280;59605;52.122;5.420;2022-09-25T02:55:31;101709.91;;;20.39;54.83
71770;BME280;59605;52.122;5.420;2022-09-25T03:00:34;101708.25;;;20.38;54.27
71770;BME280;59605;52.122;5.420;2022-09-25T03:03:01;101708.25;;;20.38;54.37
71770;BME280;59605;52.122;5.420;2022-09-25T03:05:30;101710.94;;;20.37;54.22
71770;BME280;59605;52.122;5.420;2022-09-25T03:07:57;101714.41;;;20.37;54.29
71770;BME280;59605;52.122;5.420;2022-09-25T03:10:41;101715.25;;;20.38;54.21
71770;BME280;59605;52.122;5.420;2022-09-25T03:13:20;101713.56;;;20.37;54.19
71770;BME280;59605;52.122;5.420;2022-09-25T03:15:55;101717.94;;;20.36;54.38
71770;BME280;59605;52.122;5.420;2022-09-25T03:18:25;101717.22;;;20.34;54.06
71770;BME280;59605;52.122;5.420;2022-09-25T03:20:52;101715.44;;;20.35;54.31
71770;BME280;59605;52.122;5.420;2022-09-25T03:23:18;101717.22;;;20.34;54.03
71770;BME280;59605;52.122;5.420;2022-09-25T03:25:45;101718.97;;;20.34;53.91
71770;BME280;59605;52.122;5.420;2022-09-25T03:28:15;101720.66;;;20.35;53.95
71770;BME280;59605;52.122;5.420;2022-09-25T03:30:42;101710.31;;;20.33;54.04
71770;BME280;59605;52.122;5.420;2022-09-25T03:33:10;101721.59;;;20.34;53.85
71770;BME280;59605;52.122;5.420;2022-09-25T03:35:37;101717.31;;;20.33;54.23
71770;BME280;59605;52.122;5.420;2022-09-25T03:38:05;101715.53;;;20.33;53.99
71770;BME280;59605;52.122;5.420;2022-09-25T03:40:33;101713.84;;;20.32;54.11
71770;BME280;59605;52.122;5.420;2022-09-25T03:43:00;101710.41;;;20.32;54.11
71770;BME280;59605;52.122;5.420;2022-09-25T03:45:27;101706.03;;;20.32;53.95
71770;BME280;59605;52.122;5.420;2022-09-25T03:47:53;101713.84;;;20.32;53.81
71770;BME280;59605;52.122;5.420;2022-09-25T03:50:20;101715.63;;;20.32;53.79
71770;BME280;59605;52.122;5.420;2022-09-25T03:52:46;101705.28;;;20.30;53.80
71770;BME280;59605;52.122;5.420;2022-09-25T03:55:13;101706.13;;;20.31;53.56
71770;BME280;59605;52.122;5.420;2022-09-25T03:57:39;101703.63;;;20.29;53.94
71770;BME280;59605;52.122;5.420;2022-09-25T04:00:06;101704.47;;;20.30;53.62
71770;BME280;59605;52.122;5.420;2022-09-25T04:02:33;101704.56;;;20.28;53.82
71770;BME280;59605;52.122;5.420;2022-09-25T04:04:59;101703.63;;;20.29;53.66
71770;BME280;59605;52.122;5.420;2022-09-25T04:07:25;101701.09;;;20.28;53.58
71770;BME280;59605;52.122;5.420;2022-09-25T04:09:53;101702.78;;;20.29;53.54
71770;BME280;59605;52.122;5.420;2022-09-25T04:12:19;101703.72;;;20.28;53.43
71770;BME280;59605;52.122;5.420;2022-09-25T04:14:46;101704.56;;;20.28;53.47
71770;BME280;59605;52.122;5.420;2022-09-25T04:17:12;101701.19;;;20.26;53.58
71770;BME280;59605;52.122;5.420;2022-09-25T04:19:39;101703.00;;;20.26;53.29
71770;BME280;59605;52.122;5.420;2022-09-25T04:22:05;101715.94;;;20.27;53.83
71770;BME280;59605;52.122;5.420;2022-09-25T04:24:31;101710.81;;;20.26;53.71
71770;BME280;59605;52.122;5.420;2022-09-25T04:27:18;101710.81;;;20.26;53.36
71770;BME280;59605;52.122;5.420;2022-09-25T04:29:45;101701.31;;;20.25;53.53
71770;BME280;59605;52.122;5.420;2022-09-25T04:32:13;101694.31;;;20.25;53.79
71770;BME280;59605;52.122;5.420;2022-09-25T04:34:58;101707.34;;;20.25;53.75
71770;BME280;59605;52.122;5.420;2022-09-25T04:37:25;101699.63;;;20.23;53.40
71770;BME280;59605;52.122;5.420;2022-09-25T04:39:53;101696.91;;;20.25;53.74
71770;BME280;59605;52.122;5.420;2022-09-25T04:42:20;101696.09;;;20.25;53.33
71770;BME280;59605;52.122;5.420;2022-09-25T04:44:54;101698.69;;;20.25;53.53
71770;BME280;59605;52.122;5.420;2022-09-25T04:47:26;101703.81;;;20.26;53.51
71770;BME280;59605;52.122;5.420;2022-09-25T04:49:53;101696.09;;;20.25;53.56
71770;BME280;59605;52.122;5.420;2022-09-25T04:52:20;101696.91;;;20.25;53.40
71770;BME280;59605;52.122;5.420;2022-09-25T04:54:46;101692.53;;;20.26;53.71
71770;BME280;59605;52.122;5.420;2022-09-25T04:57:18;101685.63;;;20.25;53.69
71770;BME280;59605;52.122;5.420;2022-09-25T05:00:08;101692.66;;;20.24;53.39
71770;BME280;59605;52.122;5.420;2022-09-25T05:02:35;101697.00;;;20.23;53.68
71770;BME280;59605;52.122;5.420;2022-09-25T05:05:02;101697.00;;;20.23;53.25
71770;BME280;59605;52.122;5.420;2022-09-25T05:07:29;101690.97;;;20.23;53.60
71770;BME280;59605;52.122;5.420;2022-09-25T05:09:55;101698.78;;;20.23;53.34
71770;BME280;59605;52.122;5.420;2022-09-25T05:12:21;101692.75;;;20.22;53.65
71770;BME280;59605;52.122;5.420;2022-09-25T05:14:48;101695.34;;;20.22;53.54
71770;BME280;59605;52.122;5.420;2022-09-25T05:17:14;101694.50;;;20.22;53.28
71770;BME280;59605;52.122;5.420;2022-09-25T05:19:41;101698.91;;;20.21;53.70
71770;BME280;59605;52.122;5.420;2022-09-25T05:22:07;101692.00;;;20.20;53.73
71770;BME280;59605;52.122;5.420;2022-09-25T05:24:33;101698.06;;;20.21;53.81
71770;BME280;59605;52.122;5.420;2022-09-25T05:27:00;101696.38;;;20.20;53.85
71770;BME280;59605;52.122;5.420;2022-09-25T05:29:27;101700.69;;;20.21;53.85
71770;BME280;59605;52.122;5.420;2022-09-25T05:31:53;101699.00;;;20.20;53.71
71770;BME280;59605;52.122;5.420;2022-09-25T05:34:21;101693.78;;;20.20;54.07
71770;BME280;59605;52.122;5.420;2022-09-25T05:36:47;101693.00;;;20.18;52.99
71770;BME280;59605;52.122;5.420;2022-09-25T05:39:14;101696.59;;;20.17;53.98
71770;BME280;59605;52.122;5.420;2022-09-25T05:41:40;101694.81;;;20.17;54.07
71770;BME280;59605;52.122;5.420;2022-09-25T05:44:06;101692.09;;;20.19;54.33
71770;BME280;59605;52.122;5.420;2022-09-25T05:46:35;101701.69;;;20.18;54.34
71770;BME280;59605;52.122;5.420;2022-09-25T05:49:02;101696.59;;;20.17;54.38
71770;BME280;59605;52.122;5.420;2022-09-25T05:51:29;101693.13;;;20.16;54.45
71770;BME280;59605;52.122;5.420;2022-09-25T05:53:56;101699.09;;;20.18;54.54
71770;BME280;59605;52.122;5.420;2022-09-25T05:56:22;101693.88;;;20.18;54.49
71770;BME280;59605;52.122;5.420;2022-09-25T05:58:50;101704.31;;;20.18;54.42
71770;BME280;59605;52.122;5.420;2022-09-25T06:01:18;101699.19;;;20.17;54.44
71770;BME280;59605;52.122;5.420;2022-09-25T06:03:44;101706.91;;;20.18;54.44
71770;BME280;59605;52.122;5.420;2022-09-25T06:06:11;101707.84;;;20.17;54.27
71770;BME280;59605;52.122;5.420;2022-09-25T06:08:37;101700.03;;;20.17;53.32
71770;BME280;59605;52.122;5.420;2022-09-25T06:11:04;101692.50;;;20.13;53.67
71770;BME280;59605;52.122;5.420;2022-09-25T06:13:31;101698.53;;;20.13;54.35
71770;BME280;59605;52.122;5.420;2022-09-25T06:16:00;101698.53;;;20.13;54.12
71770;BME280;59605;52.122;5.420;2022-09-25T06:18:26;101696.88;;;20.12;54.10
71770;BME280;59605;52.122;5.420;2022-09-25T06:21:02;101696.03;;;20.12;54.51
71770;BME280;59605;52.122;5.420;2022-09-25T06:23:29;101705.53;;;20.13;54.28
71770;BME280;59605;52.122;5.420;2022-09-25T06:26:00;101697.72;;;20.13;54.56
71770;BME280;59605;52.122;5.420;2022-09-25T06:28:27;101697.72;;;20.13;54.42
71770;BME280;59605;52.122;5.420;2022-09-25T06:30:54;101698.53;;;20.13;54.18
71770;BME280;59605;52.122;5.420;2022-09-25T06:33:20;101703.75;;;20.13;54.37
71770;BME280;59605;52.122;5.420;2022-09-25T06:35:47;101697.59;;;20.14;54.20
71770;BME280;59605;52.122;5.420;2022-09-25T06:38:15;101702.00;;;20.14;54.39
71770;BME280;59605;52.122;5.420;2022-09-25T06:40:42;101705.44;;;20.14;54.38
71770;BME280;59605;52.122;5.420;2022-09-25T06:43:11;101710.66;;;20.14;54.48
71770;BME280;59605;52.122;5.420;2022-09-25T06:45:37;101707.22;;;20.14;54.53
71770;BME280;59605;52.122;5.420;2022-09-25T06:48:06;101706.25;;;20.15;54.45
71770;BME280;59605;52.122;5.420;2022-09-25T06:50:39;101705.44;;;20.14;54.47
71770;BME280;59605;52.122;5.420;2022-09-25T06:53:08;101704.50;;;20.15;54.57
71770;BME280;59605;52.122;5.420;2022-09-25T06:55:34;101711.38;;;20.16;54.64
71770;BME280;59605;52.122;5.420;2022-09-25T06:58:01;101707.84;;;20.17;54.58
71770;BME280;59605;52.122;5.420;2022-09-25T07:00:27;101706.16;;;20.16;54.82
71770;BME280;59605;52.122;5.420;2022-09-25T07:02:53;101707.84;;;20.17;55.16
71770;BME280;59605;52.122;5.420;2022-09-25T07:05:38;101719.97;;;20.18;55.01
71770;BME280;59605;52.122;5.420;2022-09-25T07:08:04;101708.69;;;20.18;54.95
71770;BME280;59605;52.122;5.420;2022-09-25T07:10:31;101707.75;;;20.19;55.18
71770;BME280;59605;52.122;5.420;2022-09-25T07:12:57;101720.81;;;20.19;55.37
71770;BME280;59605;52.122;5.420;2022-09-25T07:15:24;101721.66;;;20.19;55.54
71770;BME280;59605;52.122;5.420;2022-09-25T07:17:51;101730.31;;;20.20;55.52
71770;BME280;59605;52.122;5.420;2022-09-25T07:20:17;101723.31;;;20.20;55.26
71770;BME280;59605;52.122;5.420;2022-09-25T07:22:43;101717.47;;;20.17;55.25
71770;BME280;59605;52.122;5.420;2022-09-25T07:25:10;101717.38;;;20.18;55.54
71770;BME280;59605;52.122;5.420;2022-09-25T07:27:37;101725.91;;;20.20;55.35
71770;BME280;59605;52.122;5.420;2022-09-25T07:30:04;101725.00;;;20.21;55.78
71770;BME280;59605;52.122;5.420;2022-09-25T07:32:30;101731.03;;;20.22;55.71
71770;BME280;59605;52.122;5.420;2022-09-25T07:34:57;101724.06;;;20.22;55.91
71770;BME280;59605;52.122;5.420;2022-09-25T07:37:24;101723.97;;;20.24;55.74
71770;BME280;59605;52.122;5.420;2022-09-25T07:39:50;101716.13;;;20.24;56.02
71770;BME280;59605;52.122;5.420;2022-09-25T07:42:16;101722.09;;;20.26;55.93
71770;BME280;59605;52.122;5.420;2022-09-25T07:44:43;101722.91;;;20.27;56.04
71770;BME280;59605;52.122;5.420;2022-09-25T07:47:14;101710.81;;;20.26;56.16
71770;BME280;59605;52.122;5.420;2022-09-25T07:49:40;101716.78;;;20.28;56.00
71770;BME280;59605;52.122;5.420;2022-09-25T07:52:06;101718.44;;;20.29;56.46
71770;BME280;59605;52.122;5.420;2022-09-25T07:54:33;101716.66;;;20.29;56.47
71770;BME280;59605;52.122;5.420;2022-09-25T07:57:01;101712.31;;;20.30;56.23
71770;BME280;59605;52.122;5.420;2022-09-25T07:59:27;101713.13;;;20.30;56.55
71770;BME280;59605;52.122;5.420;2022-09-25T08:01:54;101715.75;;;20.30;56.63
71770;BME280;59605;52.122;5.420;2022-09-25T08:04:20;101715.63;;;20.32;56.56
71770;BME280;59605;52.122;5.420;2022-09-25T08:06:46;101715.63;;;20.32;56.78
71770;BME280;59605;52.122;5.420;2022-09-25T08:09:13;101716.47;;;20.32;56.45
71770;BME280;59605;52.122;5.420;2022-09-25T08:11:39;101713.03;;;20.32;56.51
71770;BME280;59605;52.122;5.420;2022-09-25T08:14:06;101723.47;;;20.32;56.87
71770;BME280;59605;52.122;5.420;2022-09-25T08:16:32;101715.53;;;20.33;56.88
71770;BME280;59605;52.122;5.420;2022-09-25T08:18:59;101718.97;;;20.34;56.81
71770;BME280;59605;52.122;5.420;2022-09-25T08:21:25;101719.84;;;20.34;56.63
71770;BME280;59605;52.122;5.420;2022-09-25T08:23:52;101720.66;;;20.35;57.26
71770;BME280;59605;52.122;5.420;2022-09-25T08:26:20;101718.88;;;20.35;57.24
71770;BME280;59605;52.122;5.420;2022-09-25T08:28:47;101714.50;;;20.36;57.42
71770;BME280;59605;52.122;5.420;2022-09-25T08:31:14;101717.94;;;20.36;57.47
71770;BME280;59605;52.122;5.420;2022-09-25T08:33:45;101723.06;;;20.38;57.41
71770;BME280;59605;52.122;5.420;2022-09-25T08:36:12;101717.03;;;20.37;57.72
71770;BME280;59605;52.122;5.420;2022-09-25T08:38:38;101717.84;;;20.38;57.87
71770;BME280;59605;52.122;5.420;2022-09-25T08:41:13;101710.88;;;20.38;58.02
71770;BME280;59605;52.122;5.420;2022-09-25T08:46:44;101719.34;;;20.42;57.85
71770;BME280;59605;52.122;5.420;2022-09-25T08:49:35;101713.28;;;20.42;57.97
71770;BME280;59605;52.122;5.420;2022-09-25T08:52:05;101713.28;;;20.42;58.16
71770;BME280;59605;52.122;5.420;2022-09-25T08:54:34;101710.56;;;20.43;58.30
71770;BME280;59605;52.122;5.420;2022-09-25T08:57:13;101709.63;;;20.44;58.13
71770;BME280;59605;52.122;5.420;2022-09-25T08:59:45;101709.50;;;20.46;58.39
71770;BME280;59605;52.122;5.420;2022-09-25T09:02:20;101709.50;;;20.46;58.60
71770;BME280;59605;52.122;5.420;2022-09-25T09:04:56;101710.25;;;20.48;58.43
71770;BME280;59605;52.122;5.420;2022-09-25T09:07:34;101702.44;;;20.48;58.50
71770;BME280;59605;52.122;5.420;2022-09-25T09:10:06;101711.00;;;20.50;58.53
71770;BME280;59605;52.122;5.420;2022-09-25T09:12:46;101715.38;;;20.49;59.00
71770;BME280;59605;52.122;5.420;2022-09-25T09:18:08;101719.69;;;20.50;59.10
71770;BME280;59605;52.122;5.420;2022-09-25T09:20:47;101711.84;;;20.50;58.95
71770;BME280;59605;52.122;5.420;2022-09-25T09:23:19;101719.59;;;20.52;59.20
71770;BME280;59605;52.122;5.420;2022-09-25T09:37:34;101721.22;;;20.53;59.06
71770;BME280;59605;52.122;5.420;2022-09-25T09:40:19;101728.25;;;20.52;59.14
71770;BME280;59605;52.122;5.420;2022-09-25T09:45:46;101726.47;;;20.53;59.15
71770;BME280;59605;52.122;5.420;2022-09-25T09:48:25;101722.91;;;20.54;59.06
71770;BME280;59605;52.122;5.420;2022-09-25T09:51:08;101716.00;;;20.53;58.94
71770;BME280;59605;52.122;5.420;2022-09-25T09:53:43;101710.63;;;20.56;59.17
71770;BME280;59605;52.122;5.420;2022-09-25T09:56:15;101708.00;;;20.56;59.18
71770;BME280;59605;52.122;5.420;2022-09-25T09:58:56;101706.94;;;20.58;59.24
71770;BME280;59605;52.122;5.420;2022-09-25T10:01:28;101708.84;;;20.56;59.23
71770;BME280;59605;52.122;5.420;2022-09-25T10:04:10;101707.78;;;20.59;58.90
71770;BME280;59605;52.122;5.420;2022-09-25T10:06:46;101701.72;;;20.58;58.71
71770;BME280;59605;52.122;5.420;2022-09-25T10:09:15;101691.28;;;20.58;58.97
71770;BME280;59605;52.122;5.420;2022-09-25T10:11:43;101695.56;;;20.60;59.10
71770;BME280;59605;52.122;5.420;2022-09-25T10:14:17;101693.78;;;20.60;58.78
71770;BME280;59605;52.122;5.420;2022-09-25T10:16:48;101691.06;;;20.62;59.20
71770;BME280;59605;52.122;5.420;2022-09-25T10:19:24;101693.56;;;20.63;58.94
71770;BME280;59605;52.122;5.420;2022-09-25T10:21:58;101694.53;;;20.62;59.21
71770;BME280;59605;52.122;5.420;2022-09-25T10:27:34;101690.25;;;20.61;58.76
71770;BME280;59605;52.122;5.420;2022-09-25T10:30:08;101690.25;;;20.61;59.21
71770;BME280;59605;52.122;5.420;2022-09-25T10:38:03;101692.03;;;20.61;59.25
71770;BME280;59605;52.122;5.420;2022-09-25T10:40:37;101683.34;;;20.60;58.97
71770;BME280;59605;52.122;5.420;2022-09-25T10:43:20;101685.94;;;20.60;59.00
71770;BME280;59605;52.122;5.420;2022-09-25T10:45:49;101693.78;;;20.60;59.24
71770;BME280;59605;52.122;5.420;2022-09-25T10:48:32;101694.63;;;20.61;59.55
71770;BME280;59605;52.122;5.420;2022-09-25T10:51:17;101684.91;;;20.63;59.24
71770;BME280;59605;52.122;5.420;2022-09-25T10:53:48;101683.13;;;20.63;59.21
71770;BME280;59605;52.122;5.420;2022-09-25T10:56:20;101677.84;;;20.65;59.22
71770;BME280;59605;52.122;5.420;2022-09-25T10:58:52;101668.22;;;20.65;58.95
71770;BME280;59605;52.122;5.420;2022-09-25T11:01:28;101671.66;;;20.66;59.04
71770;BME280;59605;52.122;5.420;2022-09-25T11:03:56;101665.53;;;20.67;58.98
71770;BME280;59605;52.122;5.420;2022-09-25T11:06:25;101665.53;;;20.67;58.67
71770;BME280;59605;52.122;5.420;2022-09-25T11:09:03;101665.53;;;20.67;58.84
71770;BME280;59605;52.122;5.420;2022-09-25T11:11:31;101665.53;;;20.67;58.89
71770;BME280;59605;52.122;5.420;2022-09-25T11:13:59;101664.69;;;20.66;58.62
71770;BME280;59605;52.122;5.420;2022-09-25T11:17:02;101658.59;;;20.66;58.39
71770;BME280;59605;52.122;5.420;2022-09-25T11:19:36;101660.31;;;20.67;58.66
71770;BME280;59605;52.122;5.420;2022-09-25T11:22:12;101657.59;;;20.68;58.76
71770;BME280;59605;52.122;5.420;2022-09-25T11:24:52;101647.97;;;20.69;58.23
71770;BME280;59605;52.122;5.420;2022-09-25T11:30:17;101654.88;;;20.70;58.69
71770;BME280;59605;52.122;5.420;2022-09-25T11:32:50;101649.53;;;20.71;58.62
71770;BME280;59605;52.122;5.420;2022-09-25T11:49:22;101635.84;;;20.81;58.73
71770;BME280;59605;52.122;5.420;2022-09-25T12:02:50;101623.94;;;20.89;59.01
71770;BME280;59605;52.122;5.420;2022-09-25T12:05:45;101613.41;;;20.91;58.99
71770;BME280;59605;52.122;5.420;2022-09-25T12:11:27;101621.13;;;20.92;58.87
71770;BME280;59605;52.122;5.420;2022-09-25T12:14:10;101615.06;;;20.92;58.90
71770;BME280;59605;52.122;5.420;2022-09-25T12:16:55;101610.78;;;20.91;59.03
71770;BME280;59605;52.122;5.420;2022-09-25T12:22:18;101616.63;;;20.95;58.62
71770;BME280;59605;52.122;5.420;2022-09-25T12:28:04;101605.13;;;20.97;58.84
71770;BME280;59605;52.122;5.420;2022-09-25T12:30:42;101604.28;;;20.97;58.34
71770;BME280;59605;52.122;5.420;2022-09-25T12:33:21;101601.78;;;20.95;58.41
71770;BME280;59605;52.122;5.420;2022-09-25T12:35:57;101613.09;;;20.96;58.55
71770;BME280;59605;52.122;5.420;2022-09-25T12:41:00;101592.28;;;20.94;58.38
71770;BME280;59605;52.122;5.420;2022-09-25T12:43:39;101601.06;;;20.93;58.58
71770;BME280;59605;52.122;5.420;2022-09-25T12:46:25;101591.53;;;20.92;58.31
71770;BME280;59605;52.122;5.420;2022-09-25T12:51:45;101595.13;;;20.91;58.56
71770;BME280;59605;52.122;5.420;2022-09-25T12:54:14;101594.25;;;20.90;58.36
71770;BME280;59605;52.122;5.420;2022-09-25T12:56:52;101590.72;;;20.91;58.33
71770;BME280;59605;52.122;5.420;2022-09-25T12:59:37;101589.97;;;20.89;57.97
71770;BME280;59605;52.122;5.420;2022-09-25T13:02:23;101596.16;;;20.88;57.93
71770;BME280;59605;52.122;5.420;2022-09-25T13:04:58;101589.25;;;20.87;58.14
71770;BME280;59605;52.122;5.420;2022-09-25T13:07:49;101601.50;;;20.87;57.82
71770;BME280;59605;52.122;5.420;2022-09-25T13:10:32;101586.75;;;20.86;58.04
71770;BME280;59605;52.122;5.420;2022-09-25T13:13:04;101578.91;;;20.86;57.78
71770;BME280;59605;52.122;5.420;2022-09-25T13:15:40;101585.06;;;20.85;57.87
71770;BME280;59605;52.122;5.420;2022-09-25T13:18:25;101583.41;;;20.84;57.75
71770;BME280;59605;52.122;5.420;2022-09-25T13:20:58;101579.84;;;20.85;57.68
71770;BME280;59605;52.122;5.420;2022-09-25T13:23:47;101581.63;;;20.84;57.88
71770;BME280;59605;52.122;5.420;2022-09-25T13:26:17;101576.41;;;20.84;57.87
71770;BME280;59605;52.122;5.420;2022-09-25T13:31:28;101577.22;;;20.85;57.42
71770;BME280;59605;52.122;5.420;2022-09-25T13:34:02;101572.97;;;20.84;57.61
71770;BME280;59605;52.122;5.420;2022-09-25T13:36:51;101570.44;;;20.82;57.38
71770;BME280;59605;52.122;5.420;2022-09-25T13:39:27;101573.88;;;20.83;57.27
71770;BME280;59605;52.122;5.420;2022-09-25T13:42:27;101570.44;;;20.82;57.14
71770;BME280;59605;52.122;5.420;2022-09-25T13:53:10;101567.91;;;20.81;57.33
71770;BME280;59605;52.122;5.420;2022-09-25T13:58:26;101567.09;;;20.80;57.02
71770;BME280;59605;52.122;5.420;2022-09-25T14:00:55;101558.44;;;20.80;56.83
71770;BME280;59605;52.122;5.420;2022-09-25T14:03:35;101564.59;;;20.79;56.91
71770;BME280;59605;52.122;5.420;2022-09-25T14:06:19;101557.56;;;20.79;56.72
71770;BME280;59605;52.122;5.420;2022-09-25T14:08:48;101557.56;;;20.79;56.84
71770;BME280;59605;52.122;5.420;2022-09-25T14:11:18;101548.81;;;20.80;56.58
71770;BME280;59605;52.122;5.420;2022-09-25T14:13:49;101556.63;;;20.80;56.75
71770;BME280;59605;52.122;5.420;2022-09-25T14:16:27;101545.38;;;20.80;56.83
71770;BME280;59605;52.122;5.420;2022-09-25T14:18:57;101546.19;;;20.80;57.14
71770;BME280;59605;52.122;5.420;2022-09-25T14:21:24;101545.38;;;20.80;57.07
71770;BME280;59605;52.122;5.420;2022-09-25T14:23:56;101544.50;;;20.79;57.29
71770;BME280;59605;52.122;5.420;2022-09-25T14:26:24;101534.91;;;20.80;57.32
71770;BME280;59605;52.122;5.420;2022-09-25T14:28:53;101536.66;;;20.79;57.06
71770;BME280;59605;52.122;5.420;2022-09-25T14:34:09;101529.69;;;20.80;57.02
71770;BME280;59605;52.122;5.420;2022-09-25T14:39:42;101531.44;;;20.79;57.38
71770;BME280;59605;52.122;5.420;2022-09-25T14:48:08;101518.50;;;20.78;57.46
71770;BME280;59605;52.122;5.420;2022-09-25T14:50:42;101514.22;;;20.77;57.08
71770;BME280;59605;52.122;5.420;2022-09-25T14:53:14;101512.44;;;20.77;57.49
71770;BME280;59605;52.122;5.420;2022-09-25T14:55:45;101505.53;;;20.76;57.21
71770;BME280;59605;52.122;5.420;2022-09-25T14:58:17;101502.94;;;20.76;57.29
71770;BME280;59605;52.122;5.420;2022-09-25T15:00:47;101509.00;;;20.77;57.43
71770;BME280;59605;52.122;5.420;2022-09-25T15:03:16;101505.44;;;20.78;57.44
71770;BME280;59605;52.122;5.420;2022-09-25T15:05:46;101506.28;;;20.78;57.19
71770;BME280;59605;52.122;5.420;2022-09-25T15:08:39;101501.88;;;20.79;57.39
71770;BME280;59605;52.122;5.420;2022-09-25T15:11:15;101502.53;;;20.82;57.03
71770;BME280;59605;52.122;5.420;2022-09-25T15:13:43;101495.41;;;20.84;57.00